Latest Weather Observations for Wulungurru (Kintore)

IDD60801

Issued at 7:05 pm CST Friday 31 October 2014 (issued every 30 minutes, with the page automatically refreshed every 10 minutes)

About weather observations | Map of weather stations | Latest weather observations for NT | Other Formats
Station Details ID: 015664 Name: WALUNGURRU AIRPORT Lat: -23.27 Lon: 129.38 Height: 454.3 m
Data from the previous 72 hours. | See also: Recent months at Wulungurru (Kintore)
Date/Time
CST
Temp
°C
App
Temp
°C
Dew
Point
Rel
Hum
%
Delta-T
°C
Wind Press
QNH
hPa
Press
MSL
hPa
Rain
since 9 am
mm
Dir
 
Spd
km/h
Gust
km/h
Spd
kts
Gust
kts
31/07:00pm 33.7 31.3 5.3 17 15.5 NE 7 9 4 5 1008.3 - 0.2
31/06:30pm 35.1 31.8 4.6 15 16.6 N 11 13 6 7 1007.8 - 0.2
31/06:00pm 35.7 31.6 4.1 14 17.1 NNE 15 22 8 12 1007.3 1004.9 0.2
31/05:30pm 35.9 31.8 4.2 14 17.2 N 15 22 8 12 1007.2 - 0.2
31/05:00pm 36.2 31.2 4.5 14 17.3 NNE 20 28 11 15 1007.2 - 0.2
31/04:30pm 36.0 30.4 5.3 15 16.9 NNE 24 32 13 17 1007.7 - 0.2
31/04:00pm 35.9 30.6 5.2 15 16.9 NE 22 30 12 16 1007.9 - 0.2
31/03:30pm 35.6 29.2 5.0 15 16.7 NE 28 37 15 20 1008.2 - 0.2
31/03:00pm 36.3 30.0 5.5 15 17.1 ENE 28 39 15 21 1008.5 1006.2 0.2
31/02:30pm 35.8 28.8 6.1 16 16.5 NE 32 39 17 21 1008.9 - 0.2
31/02:00pm 36.0 29.0 6.2 16 16.6 NE 32 46 17 25 1009.6 - 0.2
31/01:44pm 35.1 28.2 4.6 15 16.5 NE 30 48 16 26 1009.7 - 0.2
31/01:30pm 34.5 29.9 8.3 20 15.0 NE 22 35 12 19 1010.0 - 0.2
31/01:00pm 32.2 28.9 10.8 27 12.6 NE 19 24 10 13 1010.7 - 0.0
31/12:30pm 30.1 29.0 12.1 33 10.7 NE 9 13 5 7 1011.0 - 0.0
31/12:00pm 28.7 26.4 13.0 38 9.4 ENE 17 24 9 13 1012.0 1009.7 0.0
31/11:30am 26.7 22.8 14.5 47 7.4 ENE 28 35 15 19 1012.3 - 0.0
31/11:00am 25.7 22.8 15.1 52 6.5 SSE 24 32 13 17 1012.5 - 0.0
31/10:30am 25.6 23.4 14.4 50 6.8 SSE 19 24 10 13 1012.9 - 0.0
31/10:00am 25.7 23.2 14.2 49 7.0 SSE 20 28 11 15 1013.3 - 0.0
31/09:30am 25.8 23.0 14.3 49 7.0 SSE 22 30 12 16 1013.1 - 0.0
31/09:00am 25.1 22.2 15.1 53 6.1 SSE 24 32 13 17 1013.2 1010.9 0.2
31/08:30am 24.8 22.8 15.4 56 5.8 SSE 20 24 11 13 1013.5 - 0.2
31/08:00am 26.6 23.0 13.0 43 8.1 SSE 24 30 13 16 1013.4 - 0.2
31/07:30am 25.6 24.6 13.5 47 7.2 E 11 20 6 11 1012.6 - 0.2
31/07:00am 24.5 23.5 14.6 54 6.0 NE 13 17 7 9 1012.4 - 0.2
31/06:30am 25.0 22.5 14.2 51 6.5 SE 20 30 11 16 1011.9 - 0.2
31/06:00am 24.9 23.8 14.4 52 6.4 NE 13 17 7 9 1010.1 1007.8 0.2
31/05:30am 25.1 25.5 14.8 52 6.3 ESE 6 15 3 8 1010.0 - 0.2
31/05:00am 24.4 23.0 14.5 54 6.0 SSW 15 19 8 10 1011.1 - 0.2
31/04:30am 24.3 22.5 14.4 54 6.0 SSW 17 20 9 11 1011.9 - 0.2
31/04:00am 24.6 21.9 13.5 50 6.6 SSE 20 30 11 16 1011.3 - 0.2
31/03:30am 27.1 23.5 12.0 39 8.9 ESE 22 41 12 22 1009.7 - 0.2
31/03:00am 25.8 25.3 14.9 51 6.7 SE 11 13 6 7 1010.8 1008.5 0.2
31/02:30am 25.9 25.1 14.1 48 7.1 WSW 11 17 6 9 1012.1 - 0.2
31/02:00am 24.4 22.5 15.1 56 5.7 WSW 19 24 10 13 1012.8 - 0.2
31/01:30am 29.0 24.3 10.6 32 10.7 SW 26 37 14 20 1012.3 - 0.0
31/01:26am 28.7 23.4 11.3 34 10.2 SW 30 48 16 26 1012.2 - 0.0
31/01:16am 27.5 20.9 12.7 40 8.8 SW 39 48 21 26 1011.6 - 0.0
31/01:00am 27.9 24.2 12.7 39 9.1 W 24 35 13 19 1012.2 - 0.0
31/12:30am 27.7 25.8 11.7 37 9.4 SSW 13 33 7 18 1011.2 - 0.0
31/12:00am 29.7 25.9 7.6 25 12.3 ENE 17 24 9 13 1010.2 1007.9 0.0
 
Date/Time
CST
Temp
°C
App
Temp
°C
Dew
Point
Rel
Hum
%
Delta-T
°C
Wind Press
QNH
hPa
Press
MSL
hPa
Rain
since 9 am
mm
Dir
 
Spd
km/h
Gust
km/h
Spd
kts
Gust
kts
30/11:30pm 30.5 25.6 7.0 23 12.9 E 22 30 12 16 1010.6 - 0.0
30/11:00pm 29.4 25.5 5.5 22 12.8 NE 15 17 8 9 1010.4 - 0.0
30/10:30pm 29.6 28.1 5.0 21 13.0 NE 2 9 1 5 1010.3 - 0.0
30/10:00pm 30.1 25.1 4.7 20 13.4 E 20 30 11 16 1010.4 - 0.0
30/09:30pm 30.0 25.9 4.6 20 13.4 E 15 19 8 10 1010.7 - 0.0
30/09:00pm 30.5 26.2 3.5 18 14.0 ENE 15 20 8 11 1010.7 1008.4 0.0
30/08:30pm 30.8 25.1 2.9 17 14.4 E 22 30 12 16 1010.4 - 0.0
30/08:00pm 31.1 27.3 4.0 18 14.2 ENE 13 17 7 9 1010.4 - 0.0
30/07:30pm 31.4 27.3 4.2 18 14.4 E 15 22 8 12 1010.5 - 0.0
30/07:00pm 31.5 25.6 1.8 15 15.1 ESE 22 32 12 17 1010.4 - 0.0
30/06:30pm 31.8 24.6 1.0 14 15.5 SE 28 39 15 21 1010.2 - 0.0
30/06:00pm 32.2 24.6 0.3 13 15.9 SE 30 43 16 23 1010.4 1008.1 0.0
30/05:30pm 32.3 23.9 -0.7 12 16.2 SE 33 46 18 25 1010.1 - 0.0
30/05:00pm 32.9 24.2 -0.2 12 16.4 SE 35 50 19 27 1010.1 - 0.0
30/04:30pm 32.9 25.3 2.9 15 15.6 SE 32 46 17 25 1009.9 - 0.0
30/04:00pm 34.1 26.3 2.8 14 16.4 SSE 33 43 18 23 1010.0 - 0.0
30/03:30pm 34.3 26.0 1.9 13 16.8 SE 35 44 19 24 1010.2 - 0.0
30/03:00pm 37.5 30.3 0.7 10 19.1 SSE 28 39 15 21 1010.2 1007.9 0.0
30/02:30pm 38.3 32.1 -0.1 9 19.7 SE 22 32 12 17 1010.4 - 0.0
30/02:00pm 38.0 32.0 1.1 10 19.3 SE 22 33 12 18 1010.7 - 0.0
30/01:30pm 36.4 30.6 -0.1 10 18.5 SE 20 28 11 15 1011.1 - 0.0
30/01:00pm 36.3 29.9 1.2 11 18.2 SSE 24 30 13 16 1011.7 - 0.0
30/12:30pm 36.9 32.3 1.6 11 18.5 SSE 15 24 8 13 1012.1 - 0.0
30/12:00pm 35.1 31.8 2.6 13 17.1 S 9 19 5 10 1012.9 1010.6 0.0
30/11:30am 33.9 31.0 2.7 14 16.3 SSE 7 13 4 7 1013.2 - 0.0
30/11:00am 33.1 30.3 3.0 15 15.7 NE 7 13 4 7 1013.5 - 0.0
30/10:30am 32.1 26.9 2.2 15 15.3 NE 19 24 10 13 1013.6 - 0.0
30/10:00am 32.1 26.1 1.3 14 15.6 ENE 22 30 12 16 1013.4 - 0.0
30/09:30am 31.2 25.7 0.6 14 15.2 E 19 26 10 14 1013.3 - 0.0
30/08:30am 30.1 24.6 0.6 15 14.6 E 19 24 10 13 1013.0 - 0.0
30/07:00am 30.8 23.9 0.2 14 15.1 E 26 37 14 20 1012.5 - 0.0
30/06:00am 29.4 22.8 1.8 17 13.8 ESE 26 37 14 20 1012.0 1009.7 0.0
30/03:30am 30.9 22.3 0.3 14 15.1 ESE 35 46 19 25 1011.6 - 0.0
30/03:16am 31.0 23.0 0.4 14 15.1 ESE 32 50 17 27 1011.9 - 0.0
30/02:30am 30.9 23.8 1.3 15 14.9 SE 28 37 15 20 1012.0 - 0.0
30/01:30am 32.0 25.3 3.9 17 14.8 SE 28 39 15 21 1012.4 - 0.0
30/01:00am 32.0 25.9 4.7 18 14.6 SE 26 35 14 19 1012.7 - 0.0
30/12:30am 32.5 26.0 2.5 15 15.5 SE 26 35 14 19 1013.1 - 0.0
30/12:00am 33.0 27.7 2.9 15 15.7 SE 20 32 11 17 1013.0 1010.7 0.0
 
Date/Time
CST
Temp
°C
App
Temp
°C
Dew
Point
Rel
Hum
%
Delta-T
°C
Wind Press
QNH
hPa
Press
MSL
hPa
Rain
since 9 am
mm
Dir
 
Spd
km/h
Gust
km/h
Spd
kts
Gust
kts
29/11:30pm 33.4 28.3 3.3 15 15.8 SE 19 24 10 13 1013.0 - 0.0
29/11:00pm 33.8 29.0 2.6 14 16.3 ESE 17 22 9 12 1013.1 - 0.0
29/10:30pm 33.1 29.7 3.9 16 15.5 SE 11 17 6 9 1013.3 - 0.0
29/10:00pm 32.4 29.3 3.4 16 15.2 SSE 9 11 5 6 1013.3 - 0.0
29/09:30pm 33.1 30.4 3.9 16 15.5 E 7 11 4 6 1013.3 - 0.0
29/09:00pm 32.1 29.5 4.0 17 14.9 SE 7 13 4 7 1013.1 1010.8 0.0
29/08:30pm 32.5 29.2 4.3 17 15.0 SE 11 15 6 8 1013.0 - 0.0
29/08:00pm 33.1 29.7 3.9 16 15.5 SE 11 13 6 7 1012.8 - 0.0
29/07:30pm 33.8 32.6 4.5 16 15.8 CALM 0 7 0 4 1012.6 - 0.0
29/07:00pm 34.9 33.5 3.5 14 16.7 CALM 0 0 0 0 1012.3 - 0.0
29/06:30pm 36.9 35.0 2.8 12 18.2 N 2 7 1 4 1012.1 - 0.0
29/06:00pm 37.4 34.4 2.0 11 18.7 NNW 7 9 4 5 1012.0 1009.7 0.0
29/05:30pm 37.9 35.9 2.4 11 18.9 W 2 9 1 5 1011.7 - 0.0
29/05:00pm 38.1 34.0 2.5 11 19.0 WNW 13 17 7 9 1011.6 - 0.0
29/04:30pm 38.0 35.4 1.1 10 19.3 ENE 4 9 2 5 1011.6 - 0.0
29/04:00pm 38.6 34.0 1.6 10 19.5 NW 15 20 8 11 1011.7 - 0.0
29/03:30pm 39.4 34.5 2.2 10 19.9 WNW 17 28 9 15 1011.9 - 0.0
29/03:00pm 39.2 34.3 2.0 10 19.8 N 17 28 9 15 1012.1 1009.8 0.0
29/02:30pm 38.9 34.7 1.8 10 19.7 WNW 13 20 7 11 1012.5 - 0.0
29/02:00pm 38.8 35.9 1.7 10 19.6 W 6 11 3 6 1012.9 - 0.0
29/01:30pm 39.4 34.5 2.2 10 19.9 N 17 30 9 16 1013.3 - 0.0
29/01:00pm 39.4 34.5 2.2 10 19.9 NW 17 22 9 12 1013.8 - 0.0
29/12:30pm 38.2 32.8 2.6 11 19.0 N 20 35 11 19 1014.4 - 0.0
29/12:00pm 37.7 31.9 2.2 11 18.8 NNW 22 30 12 16 1014.7 1012.4 0.0
29/11:30am 37.3 32.0 3.1 12 18.3 NNW 20 30 11 16 1015.3 - 0.0
29/11:00am 36.1 30.7 2.2 12 17.8 NNE 20 32 11 17 1015.7 - 0.0
29/10:30am 35.6 30.3 3.0 13 17.3 NNE 20 33 11 18 1015.8 - 0.0
29/10:00am 34.3 28.2 3.0 14 16.5 NE 24 30 13 16 1016.0 - 0.0
29/09:30am 32.1 26.2 4.0 17 14.9 NE 24 30 13 16 1016.0 - 0.0
29/09:00am 30.7 24.8 3.7 18 14.1 ENE 24 33 13 18 1016.1 1013.9 0.0
29/08:30am 28.9 22.2 3.7 20 13.0 ENE 28 33 15 18 1016.1 - 0.0
29/08:00am 28.0 22.1 3.7 21 12.5 ENE 24 32 13 17 1016.1 - 0.0
29/07:30am 27.4 21.2 4.5 23 11.9 ENE 26 35 14 19 1016.0 - 0.0
29/07:00am 26.9 21.5 4.6 24 11.6 ENE 22 32 12 17 1015.9 - 0.0
29/06:30am 26.9 21.6 5.2 25 11.4 E 22 30 12 16 1015.5 - 0.0
29/06:00am 27.1 22.3 5.4 25 11.4 E 20 24 11 13 1015.1 1012.8 0.0
29/05:30am 27.5 22.9 5.7 25 11.6 E 19 24 10 13 1014.7 - 0.0
29/05:00am 27.6 22.5 5.8 25 11.6 E 22 30 12 16 1014.3 - 0.0
29/04:30am 28.3 23.5 5.8 24 12.0 E 20 28 11 15 1013.9 - 0.0
29/04:00am 28.7 25.0 6.1 24 12.1 ENE 15 20 8 11 1013.9 - 0.0
29/03:30am 28.8 24.2 5.6 23 12.4 ENE 19 24 10 13 1013.6 - 0.0
29/03:00am 29.8 25.2 5.8 22 12.9 ENE 19 22 10 12 1013.7 1011.5 0.0
29/02:30am 28.8 24.7 4.3 21 12.8 SE 15 20 8 11 1014.0 - 0.0
29/02:00am 30.1 26.1 4.7 20 13.4 E 15 20 8 11 1013.9 - 0.0
29/01:30am 30.8 26.0 4.5 19 13.9 E 19 26 10 14 1013.9 - 0.0
29/01:00am 31.6 26.4 3.6 17 14.7 E 20 26 11 14 1013.9 - 0.0
29/12:30am 32.3 27.6 3.3 16 15.2 E 17 20 9 11 1014.4 - 0.0
29/12:00am 32.6 27.6 3.5 16 15.3 E 19 24 10 13 1014.5 1012.2 0.0
 
Date/Time
CST
Temp
°C
App
Temp
°C
Dew
Point
Rel
Hum
%
Delta-T
°C
Wind Press
QNH
hPa
Press
MSL
hPa
Rain
since 9 am
mm
Dir
 
Spd
km/h
Gust
km/h
Spd
kts
Gust
kts
28/11:30pm 32.1 27.1 4.8 18 14.6 ESE 20 28 11 15 1014.8 - 0.0
28/11:00pm 30.9 26.8 6.0 21 13.5 S 17 20 9 11 1015.0 - 0.0
28/10:30pm 31.0 27.1 5.4 20 13.8 SSE 15 17 8 9 1015.0 - 0.0
28/10:00pm 31.4 27.6 5.8 20 13.9 SSE 15 19 8 10 1015.1 - 0.0
28/09:30pm 31.6 28.0 5.2 19 14.2 S 13 17 7 9 1015.0 - 0.0
28/09:00pm 32.3 28.7 5.0 18 14.7 ESE 13 20 7 11 1014.7 1012.4 0.0
28/08:30pm 31.8 27.7 6.1 20 14.0 SSW 17 20 9 11 1014.7 - 0.0
28/08:00pm 32.6 27.9 6.0 19 14.6 S 20 28 11 15 1014.5 - 0.0
28/07:30pm 33.5 30.3 3.3 15 15.9 NNE 9 13 5 7 1013.6 - 0.0

Other Formats:

Comma delimited format used in spreadsheet applications
http://www.bom.gov.au/fwo/IDD60801/IDD60801.94321.axf

JavaScript Object Notation format (JSON) in row-major order
http://www.bom.gov.au/fwo/IDD60801/IDD60801.94321.json